Lavina, MT (59046)

11:58 PM MST on March 05, 2015 (GMT -0700)
NonFedAWOS ROUNDUP MT US SUPERAWOS | Change Station
CLOSE
Current Station
Personal Weather Station
Location: Roundup, MT
Elevation: 3491 ft
Nearby Weather Stations

Elev 3491 ft 46.47 °N, 108.54 °W | Updated 43 minutes ago

Partly Cloudy
Partly Cloudy
37 °F
Feels Like 33 °F
N
5
Wind Variable Wind from WSW
Gusts 0.0 mph

Today
High -- | Low -- °F
--% Chance of Precip.
Yesterday
High -- | Low -- °F
Precip. -- in
6:48 AM 6:07 PM
Full, 100% visible
Pressure 30.20 in
Visibility 10.0 miles
Clouds Scattered Clouds 11000 ft
Windchill 33 °F
Dew Point 12 °F
Humidity 35%
Rainfall in
Snow Depth Not available.
UV 0 out of 12
Pollen .30 out of 12
Air Quality Not available.
Flu Activity Not available.
METAR KBIL 060653Z 23015KT 10SM SCT110 03/M10 A3014 RMK AO2 SLP225 T00281100 400831061

More Conditions Fewer Conditions

Pressure 30.20 in
Visibility 10.0 miles
Clouds Scattered Clouds 11000 ft
Windchill 33 °F
Dew Point 12 °F
Humidity 35%
Rainfall in
Snow Depth Not available.
UV 0 out of 12
Pollen .30 out of 12
Air Quality Not available.
Flu Activity Not available.
METAR KBIL 060653Z 23015KT 10SM SCT110 03/M10 A3014 RMK AO2 SLP225 T00281100 400831061

More Conditions Fewer Conditions

10-Day Weather Forecast

Almanac

Astronomy

Mar. 05, 2015 Rise Set
Actual Time
Civil Twilight
Nautical Twilight
Astronomical Twilight
Moon
Length of Visible Light
Length of Day
Tomorrow will be .
, % of the Moon is Illuminated

Today's Extremes

State Highs State Lows

Community

WunderPhotos

Upload Photos

1,803,197 photos uploaded!

WunderBlogs® & News

Nearby

Air Quality

  Air Quality AQ Index Pollutant
Not available.

Snow Depth

Station Depth Elevation

Earthquake Activity

City Distance Mag. Time & Date
Minimum magnitude displayed is 2.5.

Coastal Water Temperatures

Place Temperature

Nearby Weather Stations